createdAt,value
2022-12-26T00:01:05.897Z,21.03
2022-12-26T00:03:33.040Z,20.50
2022-12-26T00:06:00.142Z,22.70
2022-12-26T00:08:27.311Z,24.40
2022-12-26T00:10:54.320Z,20.50
2022-12-26T00:13:38.139Z,21.23
2022-12-26T00:16:16.191Z,20.07
2022-12-26T00:18:43.586Z,21.37
2022-12-26T00:21:13.555Z,23.10
2022-12-26T00:23:42.112Z,19.33
2022-12-26T00:26:16.446Z,20.70
2022-12-26T00:28:44.627Z,18.50
2022-12-26T00:31:18.868Z,20.87
2022-12-26T00:33:46.263Z,19.90
2022-12-26T00:36:22.031Z,21.80
2022-12-26T00:38:49.712Z,19.27
2022-12-26T00:41:19.261Z,19.73
2022-12-26T00:43:46.694Z,19.77
2022-12-26T00:46:14.863Z,20.47
2022-12-26T00:48:42.202Z,20.53
2022-12-26T00:51:09.631Z,19.97
2022-12-26T00:53:37.048Z,18.53
2022-12-26T00:56:04.501Z,20.73
2022-12-26T00:58:31.633Z,20.83
2022-12-26T01:01:22.099Z,21.80
2022-12-26T01:03:50.858Z,19.40
2022-12-26T01:06:18.644Z,19.17
2022-12-26T01:08:45.779Z,20.03
2022-12-26T01:11:15.450Z,21.83
2022-12-26T01:13:43.989Z,18.73
2022-12-26T01:16:11.271Z,20.20
2022-12-26T01:18:38.422Z,18.67
2022-12-26T01:21:10.995Z,21.43
2022-12-26T01:23:37.999Z,17.27
2022-12-26T01:26:17.876Z,19.93
2022-12-26T01:28:51.145Z,17.87
2022-12-26T01:31:19.956Z,19.03
2022-12-26T01:33:47.920Z,16.80
2022-12-26T01:36:16.658Z,18.77
2022-12-26T01:38:44.390Z,18.00
2022-12-26T01:41:17.579Z,17.53
2022-12-26T01:44:35.572Z,17.43
2022-12-26T01:47:02.620Z,18.17
2022-12-26T01:49:43.156Z,16.40
2022-12-26T01:52:29.567Z,16.37
2022-12-26T01:54:58.779Z,15.67
2022-12-26T01:57:38.011Z,14.47
2022-12-26T02:00:06.653Z,15.60
2022-12-26T02:02:56.924Z,14.07
2022-12-26T02:05:35.808Z,14.60
2022-12-26T02:08:14.239Z,14.17
2022-12-26T02:10:53.365Z,13.17
2022-12-26T02:13:20.598Z,15.17
2022-12-26T02:15:48.300Z,11.93
2022-12-26T02:18:15.474Z,12.60
2022-12-26T02:21:01.471Z,11.37
2022-12-26T02:23:58.703Z,13.07
2022-12-26T02:27:09.703Z,10.87
2022-12-26T02:29:54.623Z,12.10
2022-12-26T02:32:36.150Z,10.53
2022-12-26T02:35:45.769Z,9.77
2022-12-26T02:38:32.843Z,8.30
2022-12-26T02:41:26.005Z,10.13
2022-12-26T02:44:35.688Z,9.60
2022-12-26T02:47:44.698Z,9.40
2022-12-26T02:51:09.313Z,9.07
2022-12-26T02:54:06.801Z,10.90
2022-12-26T02:57:05.515Z,8.63
2022-12-26T03:00:20.552Z,9.37
2022-12-26T03:03:26.906Z,9.10
2022-12-26T03:06:40.278Z,10.17
2022-12-26T03:09:42.774Z,8.83
2022-12-26T03:12:55.365Z,8.70
2022-12-26T03:15:25.014Z,8.87
2022-12-26T03:18:05.538Z,9.07
2022-12-26T03:20:37.144Z,8.83
2022-12-26T03:23:10.760Z,8.40
2022-12-26T03:26:22.226Z,9.40
2022-12-26T03:28:49.344Z,9.13
2022-12-26T03:31:17.371Z,10.93
2022-12-26T03:34:05.291Z,10.20
2022-12-26T03:37:50.161Z,10.13
2022-12-26T03:40:45.935Z,9.40
2022-12-26T03:43:57.944Z,8.23
2022-12-26T03:47:28.388Z,7.77
2022-12-26T03:50:19.771Z,7.80
2022-12-26T03:53:32.240Z,7.93
2022-12-26T03:56:32.901Z,7.40
2022-12-26T03:59:37.988Z,6.30
2022-12-26T04:02:27.961Z,8.87
2022-12-26T04:05:15.819Z,7.87
2022-12-26T04:08:18.286Z,6.50
2022-12-26T04:11:17.005Z,6.67
2022-12-26T04:14:30.233Z,6.53
2022-12-26T04:17:57.053Z,6.97
2022-12-26T04:20:43.795Z,7.00
2022-12-26T04:23:54.849Z,7.53
2022-12-26T04:26:56.070Z,7.93
2022-12-26T04:29:42.240Z,8.10
2022-12-26T04:32:46.130Z,8.57
2022-12-26T04:35:40.686Z,8.30
2022-12-26T04:38:29.544Z,9.67
2022-12-26T04:41:20.269Z,9.03
2022-12-26T04:44:08.234Z,10.90
2022-12-26T04:46:42.408Z,12.87
2022-12-26T04:49:33.139Z,10.90
2022-12-26T04:52:04.275Z,11.07
2022-12-26T04:54:31.467Z,10.93
2022-12-26T04:56:58.452Z,12.33
2022-12-26T04:59:26.245Z,10.70
2022-12-26T05:02:12.036Z,11.50
2022-12-26T05:04:57.803Z,10.73
2022-12-26T05:07:47.981Z,11.37
2022-12-26T05:10:28.332Z,9.10
2022-12-26T05:12:55.906Z,9.47
2022-12-26T05:15:23.374Z,9.73
2022-12-26T05:18:09.563Z,10.63
2022-12-26T05:20:57.923Z,8.97
2022-12-26T05:23:46.558Z,8.40
2022-12-26T05:26:42.262Z,8.57
2022-12-26T05:29:09.504Z,6.67
2022-12-26T05:31:37.369Z,7.17
2022-12-26T05:34:10.764Z,7.30
2022-12-26T05:36:58.852Z,7.00
2022-12-26T05:39:25.912Z,8.97
2022-12-26T05:41:52.873Z,6.57
2022-12-26T05:44:19.881Z,6.80
2022-12-26T05:46:47.086Z,7.50
2022-12-26T05:49:14.205Z,6.03
2022-12-26T05:51:41.379Z,5.50
2022-12-26T05:54:08.455Z,6.20
2022-12-26T05:56:35.446Z,7.13
2022-12-26T05:59:02.496Z,5.77
2022-12-26T06:01:30.723Z,6.03
2022-12-26T06:04:00.011Z,5.77
2022-12-26T06:06:28.531Z,6.30
2022-12-26T06:08:57.170Z,4.80
2022-12-26T06:11:26.763Z,4.73
2022-12-26T06:13:54.584Z,6.23
2022-12-26T06:16:21.833Z,5.40
2022-12-26T06:18:49.858Z,5.00
2022-12-26T06:21:19.711Z,4.47
2022-12-26T06:23:46.986Z,5.07
2022-12-26T06:26:14.668Z,4.33
2022-12-26T06:28:43.108Z,8.07
2022-12-26T06:31:21.406Z,5.80
2022-12-26T06:33:56.154Z,5.53
2022-12-26T06:36:27.106Z,3.40
2022-12-26T06:38:55.376Z,4.60
2022-12-26T06:41:24.892Z,4.40
2022-12-26T06:43:52.074Z,3.90
2022-12-26T06:46:25.172Z,3.53
2022-12-26T06:48:52.946Z,4.90
2022-12-26T06:51:24.347Z,4.47
2022-12-26T06:53:53.299Z,4.77
2022-12-26T06:56:26.653Z,4.90
2022-12-26T06:59:02.805Z,5.50
2022-12-26T07:01:33.265Z,4.90
2022-12-26T07:04:01.167Z,5.07
2022-12-26T07:06:37.876Z,6.87
2022-12-26T07:09:08.318Z,3.77
2022-12-26T07:11:38.666Z,6.73
2022-12-26T07:14:07.374Z,4.93
2022-12-26T07:16:36.316Z,4.23
2022-12-26T07:19:04.558Z,4.00
2022-12-26T07:21:37.924Z,3.60
2022-12-26T07:24:13.601Z,8.23
2022-12-26T07:26:40.790Z,4.20
2022-12-26T07:29:07.768Z,6.33
2022-12-26T07:31:34.786Z,5.53
2022-12-26T07:34:02.045Z,5.63
2022-12-26T07:36:29.851Z,5.47
2022-12-26T07:38:57.464Z,6.90
2022-12-26T07:41:43.210Z,5.23
2022-12-26T07:44:13.281Z,4.10
2022-12-26T07:46:40.381Z,6.23
2022-12-26T07:49:08.259Z,4.80
2022-12-26T07:51:35.288Z,4.93
2022-12-26T07:54:07.131Z,9.40
2022-12-26T07:56:37.800Z,7.83
2022-12-26T07:59:04.861Z,5.93
2022-12-26T08:01:32.053Z,6.23
2022-12-26T08:03:59.431Z,6.03
2022-12-26T08:06:26.511Z,4.70
2022-12-26T08:08:53.481Z,4.37
2022-12-26T08:11:24.970Z,4.40
2022-12-26T08:13:52.824Z,5.67
2022-12-26T08:16:20.751Z,6.17
2022-12-26T08:18:47.825Z,3.77
2022-12-26T08:21:15.598Z,3.40
2022-12-26T08:23:42.658Z,4.90
2022-12-26T08:26:13.607Z,5.10
2022-12-26T08:28:40.752Z,4.90
2022-12-26T08:31:11.514Z,5.40
2022-12-26T08:33:38.561Z,6.13
2022-12-26T08:36:09.075Z,5.10
2022-12-26T08:38:37.183Z,3.77
2022-12-26T08:41:04.609Z,4.53
2022-12-26T08:44:03.000Z,6.97
2022-12-26T08:46:21.571Z,5.00
2022-12-26T08:48:49.679Z,3.43
2022-12-26T08:51:24.470Z,4.30
2022-12-26T08:53:54.229Z,4.77
2022-12-26T08:56:25.178Z,3.37
2022-12-26T08:58:52.512Z,5.27
2022-12-26T09:01:23.722Z,3.50
2022-12-26T09:04:02.063Z,4.27
2022-12-26T09:06:31.977Z,4.43
2022-12-26T09:09:01.596Z,3.63
2022-12-26T09:11:29.252Z,6.30
2022-12-26T09:14:00.595Z,4.23
2022-12-26T09:16:39.297Z,1.87
2022-12-26T09:19:07.215Z,2.30
2022-12-26T09:21:34.270Z,3.10
2022-12-26T09:24:06.483Z,4.27
2022-12-26T09:26:34.146Z,5.33
2022-12-26T09:29:02.806Z,3.20
2022-12-26T09:31:33.642Z,4.87
2022-12-26T09:34:06.340Z,3.63
2022-12-26T09:36:38.211Z,3.00
2022-12-26T09:39:06.274Z,2.97
2022-12-26T09:42:13.071Z,4.90
2022-12-26T09:44:51.048Z,2.27
2022-12-26T09:47:37.707Z,3.00
2022-12-26T09:50:31.320Z,5.30
2022-12-26T09:53:13.754Z,7.10
2022-12-26T09:56:00.124Z,2.33
2022-12-26T09:58:41.875Z,3.73
2022-12-26T10:01:28.871Z,2.67
2022-12-26T10:04:01.313Z,7.03
2022-12-26T10:06:46.184Z,2.17
2022-12-26T10:09:57.592Z,2.83
2022-12-26T10:12:58.965Z,5.50
2022-12-26T10:15:53.262Z,2.10
2022-12-26T10:19:03.395Z,3.00
2022-12-26T10:22:16.774Z,3.63
2022-12-26T10:24:44.759Z,1.90
2022-12-26T10:27:18.060Z,4.70
2022-12-26T10:30:00.314Z,2.00
2022-12-26T10:32:36.749Z,6.50
2022-12-26T10:35:22.959Z,3.73
2022-12-26T10:37:52.159Z,3.53
2022-12-26T10:40:34.216Z,3.70
2022-12-26T10:43:20.775Z,5.10
2022-12-26T10:46:22.376Z,3.27
2022-12-26T10:48:49.620Z,2.60
2022-12-26T10:51:17.063Z,1.53
2022-12-26T10:53:51.232Z,5.37
2022-12-26T10:56:19.575Z,3.13
2022-12-26T10:58:58.959Z,5.00
2022-12-26T11:01:35.527Z,7.83
2022-12-26T11:05:02.133Z,5.37
2022-12-26T11:07:17.520Z,3.37
2022-12-26T11:09:46.080Z,3.70
2022-12-26T11:12:39.343Z,5.03
2022-12-26T11:15:41.389Z,4.90
2022-12-26T11:18:21.778Z,5.70
2022-12-26T11:20:50.614Z,6.77
2022-12-26T11:23:32.859Z,3.17
2022-12-26T11:26:01.729Z,2.80
2022-12-26T11:28:36.018Z,6.80
2022-12-26T11:31:07.872Z,8.03
2022-12-26T11:33:43.468Z,6.67
2022-12-26T11:36:16.471Z,7.17
2022-12-26T11:39:01.990Z,7.83
2022-12-26T11:41:31.544Z,8.37
2022-12-26T11:44:31.717Z,10.23
2022-12-26T11:47:11.703Z,8.00
2022-12-26T11:50:10.006Z,11.13
2022-12-26T11:52:53.558Z,8.77
2022-12-26T11:55:37.160Z,11.47
2022-12-26T11:58:10.085Z,7.37
2022-12-26T12:01:05.640Z,10.73
2022-12-26T12:03:50.057Z,12.60
2022-12-26T12:07:04.674Z,10.87
2022-12-26T12:10:12.362Z,7.13
2022-12-26T12:13:07.143Z,8.93
2022-12-26T12:16:29.587Z,6.80
2022-12-26T12:19:05.330Z,8.07
2022-12-26T12:22:03.924Z,8.23
2022-12-26T12:25:16.677Z,8.07
2022-12-26T12:28:00.276Z,8.47
2022-12-26T12:30:39.181Z,7.60
2022-12-26T12:33:47.929Z,11.70
2022-12-26T12:36:46.142Z,6.57
2022-12-26T12:39:40.921Z,7.70
2022-12-26T12:42:54.101Z,8.73
2022-12-26T12:45:46.292Z,5.63
2022-12-26T12:48:31.222Z,6.53
2022-12-26T12:51:13.464Z,5.53
2022-12-26T12:54:08.042Z,8.67
2022-12-26T12:56:47.065Z,8.23
2022-12-26T12:59:48.880Z,6.33
2022-12-26T13:02:29.463Z,7.10
2022-12-26T13:05:26.946Z,5.87
2022-12-26T13:08:32.919Z,7.23
2022-12-26T13:11:22.513Z,7.67
2022-12-26T13:14:00.738Z,6.20
2022-12-26T13:16:58.427Z,6.00
2022-12-26T13:20:01.747Z,5.47
2022-12-26T13:22:59.393Z,4.93
2022-12-26T13:25:34.083Z,3.20
2022-12-26T13:28:09.862Z,6.53
2022-12-26T13:30:38.398Z,7.70
2022-12-26T13:33:06.512Z,5.57
2022-12-26T13:36:04.482Z,6.47
2022-12-26T13:39:01.570Z,4.90
2022-12-26T13:41:48.384Z,3.03
2022-12-26T13:44:21.437Z,4.03
2022-12-26T13:46:48.380Z,4.27
2022-12-26T13:49:40.403Z,5.60
2022-12-26T13:52:11.641Z,4.83
2022-12-26T13:55:07.475Z,7.27
2022-12-26T13:57:42.802Z,4.20
2022-12-26T14:00:18.513Z,5.70
2022-12-26T14:03:33.373Z,3.60
2022-12-26T14:06:21.221Z,3.90
2022-12-26T14:09:12.155Z,5.20
2022-12-26T14:12:36.251Z,7.33
2022-12-26T14:15:35.568Z,6.37
2022-12-26T14:18:29.791Z,5.67
2022-12-26T14:21:40.010Z,2.60
2022-12-26T14:24:12.999Z,6.03
2022-12-26T14:26:58.136Z,5.80
2022-12-26T14:29:50.810Z,4.23
2022-12-26T14:33:19.216Z,5.97
2022-12-26T14:36:01.739Z,3.47
2022-12-26T14:38:57.993Z,1.93
2022-12-26T14:41:43.634Z,5.13
2022-12-26T14:44:38.066Z,2.07
2022-12-26T14:47:05.975Z,1.70
2022-12-26T14:49:35.783Z,3.93
2022-12-26T14:52:24.533Z,4.27
2022-12-26T14:54:56.084Z,4.43
2022-12-26T14:57:45.857Z,5.70
2022-12-26T15:00:22.000Z,5.77
2022-12-26T15:03:30.283Z,4.63
2022-12-26T15:06:21.023Z,3.23
2022-12-26T15:09:20.348Z,3.50
2022-12-26T15:12:18.005Z,3.60
2022-12-26T15:15:23.101Z,2.33
2022-12-26T15:18:11.034Z,4.30
2022-12-26T15:21:15.064Z,3.23
2022-12-26T15:24:09.165Z,3.43
2022-12-26T15:26:57.785Z,1.93
2022-12-26T15:30:15.752Z,3.27
2022-12-26T15:33:22.123Z,2.43
2022-12-26T15:36:13.075Z,3.47
2022-12-26T15:39:03.266Z,4.07
2022-12-26T15:41:43.706Z,5.40
2022-12-26T15:44:18.774Z,6.73
2022-12-26T15:47:09.699Z,3.80
2022-12-26T15:50:21.593Z,5.30
2022-12-26T15:53:12.598Z,4.87
2022-12-26T15:56:25.375Z,5.30
2022-12-26T15:59:32.599Z,7.47
2022-12-26T16:02:00.458Z,4.53
2022-12-26T16:04:41.966Z,8.40
2022-12-26T16:07:44.123Z,4.53
2022-12-26T16:10:25.994Z,5.33
2022-12-26T16:13:11.947Z,4.73
2022-12-26T16:15:51.039Z,4.17
2022-12-26T16:18:28.281Z,5.20
2022-12-26T16:21:21.155Z,3.40
2022-12-26T16:23:50.373Z,3.50
2022-12-26T16:26:29.191Z,7.43
2022-12-26T16:28:59.844Z,7.57
2022-12-26T16:31:34.000Z,5.73
2022-12-26T16:34:01.436Z,2.47
2022-12-26T16:36:35.724Z,6.87
2022-12-26T16:39:09.635Z,4.67
2022-12-26T16:41:59.017Z,6.97
2022-12-26T16:44:40.327Z,6.90
2022-12-26T16:47:15.043Z,5.50
2022-12-26T16:49:45.136Z,6.23
2022-12-26T16:52:45.804Z,5.90
2022-12-26T16:55:37.935Z,5.20
2022-12-26T16:58:14.656Z,4.77
2022-12-26T17:01:01.081Z,6.80
2022-12-26T17:03:56.282Z,5.20
2022-12-26T17:06:56.583Z,7.43
2022-12-26T17:09:27.167Z,6.90
2022-12-26T17:11:57.715Z,4.40
2022-12-26T17:14:38.353Z,6.80
2022-12-26T17:17:30.745Z,7.83
2022-12-26T17:20:20.023Z,5.47
2022-12-26T17:22:47.471Z,7.97
2022-12-26T17:25:31.312Z,6.00
2022-12-26T17:28:15.129Z,7.27
2022-12-26T17:30:45.458Z,7.50
2022-12-26T17:33:17.141Z,6.73
2022-12-26T17:38:38.756Z,5.87
2022-12-26T17:41:12.588Z,6.67
2022-12-26T17:43:41.611Z,6.13
2022-12-26T17:46:14.089Z,6.50
2022-12-26T17:48:42.338Z,5.17
2022-12-26T17:51:17.806Z,7.80
2022-12-26T17:53:51.075Z,8.40
2022-12-26T17:56:25.572Z,6.93
2022-12-26T17:58:52.805Z,7.37
2022-12-26T18:01:22.061Z,8.53
2022-12-26T18:03:52.805Z,10.60
2022-12-26T18:06:21.985Z,11.53
2022-12-26T18:08:49.053Z,12.40
2022-12-26T18:11:16.187Z,7.77
2022-12-26T18:13:44.366Z,7.33
2022-12-26T18:16:19.926Z,6.30
2022-12-26T18:18:48.242Z,9.33
2022-12-26T18:21:16.878Z,9.03
2022-12-26T18:23:44.381Z,7.37
2022-12-26T18:26:31.277Z,5.33
2022-12-26T18:28:59.036Z,5.93
2022-12-26T18:31:27.964Z,7.80
2022-12-26T18:33:55.629Z,6.07
2022-12-26T18:36:30.458Z,8.40
2022-12-26T18:38:57.478Z,12.90
2022-12-26T18:41:24.501Z,7.83
2022-12-26T18:43:52.012Z,8.03
2022-12-26T18:46:27.547Z,10.83
2022-12-26T18:48:56.693Z,10.50
2022-12-26T18:51:25.927Z,7.17
2022-12-26T18:53:53.206Z,7.37
2022-12-26T18:56:22.775Z,6.27
2022-12-26T18:58:57.212Z,4.63
2022-12-26T19:01:28.792Z,8.23
2022-12-26T19:03:56.183Z,7.03
2022-12-26T19:06:26.792Z,12.27
2022-12-26T19:08:54.270Z,5.43
2022-12-26T19:11:21.362Z,11.43
2022-12-26T19:13:48.390Z,6.93
2022-12-26T19:16:15.610Z,9.93
2022-12-26T19:18:42.895Z,8.30
2022-12-26T19:21:15.400Z,9.13
2022-12-26T19:23:46.634Z,6.53
2022-12-26T19:26:18.210Z,9.80
2022-12-26T19:28:45.755Z,9.40
2022-12-26T19:31:16.535Z,14.47
2022-12-26T19:33:43.974Z,11.70
2022-12-26T19:36:11.299Z,9.63
2022-12-26T19:38:39.116Z,5.93
2022-12-26T19:41:12.444Z,6.20
2022-12-26T19:43:41.724Z,13.97
2022-12-26T19:46:12.388Z,5.87
2022-12-26T19:48:39.836Z,11.20
2022-12-26T19:51:12.074Z,9.33
2022-12-26T19:53:40.349Z,9.23
2022-12-26T19:56:13.256Z,5.97
2022-12-26T19:58:43.596Z,9.07
2022-12-26T20:01:22.872Z,9.20
2022-12-26T20:03:50.754Z,7.20
2022-12-26T20:06:22.475Z,10.80
2022-12-26T20:08:51.121Z,6.50
2022-12-26T20:11:22.628Z,7.93
2022-12-26T20:13:51.107Z,14.37
2022-12-26T20:16:54.550Z,11.00
2022-12-26T20:19:09.112Z,8.93
2022-12-26T20:21:41.052Z,7.37
2022-12-26T20:24:10.734Z,12.13
2022-12-26T20:26:38.101Z,7.13
2022-12-26T20:29:05.390Z,9.37
2022-12-26T20:31:33.450Z,16.30
2022-12-26T20:34:03.360Z,6.77
2022-12-26T20:36:34.026Z,10.63
2022-12-26T20:39:12.431Z,12.33
2022-12-26T20:41:39.597Z,8.67
2022-12-26T20:44:06.805Z,10.60
2022-12-26T20:46:35.108Z,18.33
2022-12-26T20:49:04.850Z,11.30
2022-12-26T20:51:37.806Z,12.50
2022-12-26T20:54:08.336Z,9.43
2022-12-26T20:56:37.575Z,9.73
2022-12-26T20:59:06.625Z,7.80
2022-12-26T21:01:35.258Z,7.23
2022-12-26T21:04:02.635Z,10.47
2022-12-26T21:06:34.114Z,8.77
2022-12-26T21:09:05.317Z,10.73
2022-12-26T21:11:38.036Z,9.43
2022-12-26T21:14:13.368Z,8.57
2022-12-26T21:16:51.485Z,10.50
2022-12-26T21:19:20.290Z,8.60
2022-12-26T21:21:51.580Z,11.43
2022-12-26T21:24:27.905Z,7.93
2022-12-26T21:26:55.500Z,13.00
2022-12-26T21:29:31.931Z,9.80
2022-12-26T21:32:00.613Z,12.07
2022-12-26T21:34:31.090Z,7.03
2022-12-26T21:37:17.881Z,9.03
2022-12-26T21:39:47.230Z,11.13
2022-12-26T21:42:14.454Z,9.77
2022-12-26T21:44:41.550Z,5.87
2022-12-26T21:47:08.984Z,7.40
2022-12-26T21:49:37.060Z,6.83
2022-12-26T21:52:06.822Z,5.03
2022-12-26T21:54:53.090Z,7.97
2022-12-26T21:57:21.439Z,10.53
2022-12-26T21:59:57.967Z,12.07
2022-12-26T22:02:56.109Z,6.77
2022-12-26T22:05:27.767Z,7.13
2022-12-26T22:07:58.714Z,9.73
2022-12-26T22:10:50.214Z,8.30
2022-12-26T22:13:19.498Z,14.63
2022-12-26T22:16:04.370Z,9.73
2022-12-26T22:18:40.777Z,9.63
2022-12-26T22:21:16.760Z,12.60
2022-12-26T22:23:45.270Z,8.67
2022-12-26T22:26:15.096Z,8.93
2022-12-26T22:28:43.881Z,8.20
2022-12-26T22:31:38.163Z,6.47
2022-12-26T22:34:12.464Z,9.30
2022-12-26T22:36:40.771Z,17.80
2022-12-26T22:39:09.852Z,6.83
2022-12-26T22:41:38.082Z,7.70
2022-12-26T22:44:05.477Z,7.73
2022-12-26T22:46:32.548Z,8.13
2022-12-26T22:48:59.578Z,8.97
2022-12-26T22:51:27.323Z,7.70
2022-12-26T22:53:59.392Z,6.40
2022-12-26T22:56:27.647Z,9.17
2022-12-26T22:58:56.451Z,6.37
2022-12-26T23:01:23.978Z,8.70
2022-12-26T23:03:51.019Z,7.20
2022-12-26T23:06:24.509Z,8.03
2022-12-26T23:08:54.854Z,13.00
2022-12-26T23:11:26.210Z,7.53
2022-12-26T23:13:58.493Z,8.83
2022-12-26T23:16:50.579Z,8.47
2022-12-26T23:19:55.107Z,10.67
2022-12-26T23:22:22.608Z,10.20
2022-12-26T23:24:49.639Z,7.67
2022-12-26T23:27:35.410Z,6.37
2022-12-26T23:30:18.085Z,10.00
2022-12-26T23:32:49.932Z,7.80
2022-12-26T23:35:18.600Z,7.50
2022-12-26T23:37:45.611Z,4.83
2022-12-26T23:40:14.731Z,6.07
2022-12-26T23:42:41.914Z,9.03
2022-12-26T23:45:10.941Z,6.50
2022-12-26T23:47:39.917Z,8.53
2022-12-26T23:50:09.385Z,9.37
2022-12-26T23:52:37.245Z,10.33
2022-12-26T23:55:05.544Z,11.07
2022-12-26T23:57:32.637Z,10.30
